createdAt,value
2024-05-09T00:00:29.928Z,19.15
2024-05-09T00:03:04.848Z,19.12
2024-05-09T00:05:31.357Z,19.08
2024-05-09T00:07:57.825Z,18.94
2024-05-09T00:10:32.673Z,19.03
2024-05-09T00:13:02.349Z,18.99
2024-05-09T00:15:28.745Z,18.95
2024-05-09T00:17:55.413Z,18.93
2024-05-09T00:20:28.731Z,18.90
2024-05-09T00:23:03.059Z,18.87
2024-05-09T00:25:29.462Z,18.85
2024-05-09T00:27:55.877Z,18.82
2024-05-09T00:30:31.473Z,18.78
2024-05-09T00:33:01.765Z,18.76
2024-05-09T00:35:28.543Z,18.74
2024-05-09T00:37:55.489Z,18.70
2024-05-09T00:40:30.878Z,18.68
2024-05-09T00:43:04.776Z,18.65
2024-05-09T00:45:31.151Z,18.62
2024-05-09T00:47:57.702Z,18.60
2024-05-09T00:50:29.977Z,18.56
2024-05-09T00:53:02.424Z,18.53
2024-05-09T00:55:28.837Z,18.50
2024-05-09T00:57:55.334Z,18.47
2024-05-09T01:00:30.534Z,18.44
2024-05-09T01:03:02.601Z,18.42
2024-05-09T01:05:29.185Z,18.40
2024-05-09T01:07:55.644Z,18.38
2024-05-09T01:10:32.284Z,18.36
2024-05-09T01:13:01.362Z,18.35
2024-05-09T01:15:27.762Z,18.32
2024-05-09T01:17:55.177Z,18.31
2024-05-09T01:20:31.770Z,18.29
2024-05-09T01:23:06.443Z,18.25
2024-05-09T01:25:32.910Z,18.23
2024-05-09T01:27:59.308Z,18.21
2024-05-09T01:30:33.785Z,18.20
2024-05-09T01:33:02.804Z,18.18
2024-05-09T01:35:29.602Z,18.15
2024-05-09T01:37:56.036Z,18.13
2024-05-09T01:40:29.187Z,18.11
2024-05-09T01:43:03.100Z,18.08
2024-05-09T01:45:29.482Z,18.07
2024-05-09T01:47:56.277Z,18.05
2024-05-09T01:50:34.137Z,18.01
2024-05-09T01:53:05.342Z,17.98
2024-05-09T01:55:31.856Z,17.93
2024-05-09T01:57:58.232Z,17.91
2024-05-09T02:00:33.911Z,17.87
2024-05-09T02:03:05.696Z,17.84
2024-05-09T02:05:32.529Z,17.82
2024-05-09T02:07:59.042Z,17.79
2024-05-09T02:10:32.052Z,17.76
2024-05-09T02:12:59.664Z,17.74
2024-05-09T02:15:26.329Z,17.72
2024-05-09T02:17:53.055Z,17.71
2024-05-09T02:20:30.195Z,17.68
2024-05-09T02:23:02.308Z,17.67
2024-05-09T02:25:29.458Z,17.66
2024-05-09T02:27:55.898Z,17.63
2024-05-09T02:30:30.130Z,17.62
2024-05-09T02:33:04.910Z,17.60
2024-05-09T02:35:31.530Z,17.56
2024-05-09T02:37:58.009Z,17.55
2024-05-09T02:40:33.242Z,17.53
2024-05-09T02:43:03.521Z,17.51
2024-05-09T02:45:30.037Z,17.49
2024-05-09T02:47:56.618Z,17.47
2024-05-09T02:50:30.239Z,17.46
2024-05-09T02:53:03.619Z,17.42
2024-05-09T02:55:30.049Z,17.40
2024-05-09T02:57:56.513Z,17.38
2024-05-09T03:00:29.769Z,17.36
2024-05-09T03:03:04.085Z,17.34
2024-05-09T03:05:31.130Z,17.31
2024-05-09T03:07:57.721Z,17.29
2024-05-09T03:10:28.524Z,17.28
2024-05-09T03:12:55.863Z,17.25
2024-05-09T03:15:22.366Z,17.23
2024-05-09T03:17:48.918Z,17.21
2024-05-09T03:20:23.200Z,17.19
2024-05-09T03:22:52.723Z,17.18
2024-05-09T03:25:20.452Z,17.17
2024-05-09T03:27:46.830Z,17.15
2024-05-09T03:30:25.616Z,17.14
2024-05-09T03:32:57.295Z,17.11
2024-05-09T03:35:23.991Z,17.09
2024-05-09T03:37:50.543Z,17.07
2024-05-09T03:40:23.391Z,17.05
2024-05-09T03:42:52.570Z,17.02
2024-05-09T03:45:18.962Z,17.02
2024-05-09T03:47:46.182Z,17.01
2024-05-09T03:50:22.693Z,17.00
2024-05-09T03:53:02.377Z,16.98
2024-05-09T03:55:28.966Z,16.98
2024-05-09T03:57:55.357Z,16.98
2024-05-09T04:00:30.779Z,16.97
2024-05-09T04:03:03.794Z,16.97
2024-05-09T04:05:33.810Z,16.97
2024-05-09T04:08:00.461Z,16.97
2024-05-09T04:10:32.371Z,16.97
2024-05-09T04:13:00.432Z,17.00
2024-05-09T04:15:26.826Z,17.04
2024-05-09T04:17:53.550Z,17.08
2024-05-09T04:20:29.306Z,17.14
2024-05-09T04:23:03.691Z,17.22
2024-05-09T04:25:30.133Z,17.31
2024-05-09T04:27:56.540Z,17.43
2024-05-09T04:30:33.685Z,17.57
2024-05-09T04:33:04.806Z,17.76
2024-05-09T04:35:31.381Z,17.80
2024-05-09T04:37:57.985Z,17.87
2024-05-09T04:40:31.458Z,17.94
2024-05-09T04:43:01.478Z,18.03
2024-05-09T04:45:27.885Z,18.10
2024-05-09T04:47:54.479Z,18.17
2024-05-09T04:50:29.754Z,18.23
2024-05-09T04:53:02.432Z,18.28
2024-05-09T04:55:28.876Z,18.38
2024-05-09T04:57:55.266Z,18.49
2024-05-09T05:00:28.861Z,18.60
2024-05-09T05:03:01.966Z,18.71
2024-05-09T05:05:28.655Z,18.83
2024-05-09T05:07:55.070Z,18.93
2024-05-09T05:10:29.012Z,19.04
2024-05-09T05:13:00.035Z,19.15
2024-05-09T05:15:26.434Z,19.27
2024-05-09T05:17:52.960Z,19.39
2024-05-09T05:20:27.394Z,19.51
2024-05-09T05:22:59.407Z,19.64
2024-05-09T05:25:25.828Z,19.76
2024-05-09T05:27:52.225Z,19.91
2024-05-09T05:30:24.950Z,20.03
2024-05-09T05:32:55.340Z,20.18
2024-05-09T05:35:22.027Z,20.32
2024-05-09T05:37:48.451Z,20.44
2024-05-09T05:40:24.769Z,20.60
2024-05-09T05:42:54.867Z,20.74
2024-05-09T05:45:21.253Z,20.88
2024-05-09T05:47:47.964Z,21.00
2024-05-09T05:50:23.602Z,21.14
2024-05-09T05:52:54.227Z,21.29
2024-05-09T05:55:20.574Z,21.43
2024-05-09T05:57:46.989Z,21.56
2024-05-09T06:00:21.571Z,21.68
2024-05-09T06:02:55.141Z,21.82
2024-05-09T06:05:21.642Z,21.97
2024-05-09T06:07:48.043Z,22.11
2024-05-09T06:10:21.272Z,22.25
2024-05-09T06:12:52.117Z,22.40
2024-05-09T06:15:18.577Z,22.56
2024-05-09T06:17:45.164Z,22.69
2024-05-09T06:20:20.217Z,22.83
2024-05-09T06:22:50.529Z,22.98
2024-05-09T06:25:18.336Z,23.11
2024-05-09T06:27:44.705Z,23.22
2024-05-09T06:30:24.815Z,23.34
2024-05-09T06:32:55.926Z,23.48
2024-05-09T06:35:22.564Z,23.61
2024-05-09T06:37:49.066Z,23.73
2024-05-09T06:40:21.195Z,23.88
2024-05-09T06:42:51.740Z,24.00
2024-05-09T06:45:18.166Z,24.13
2024-05-09T06:47:44.784Z,24.25
2024-05-09T06:50:19.700Z,24.39
2024-05-09T06:52:50.073Z,24.51
2024-05-09T06:55:19.411Z,24.64
2024-05-09T06:57:45.864Z,24.76
2024-05-09T07:00:15.686Z,24.85
2024-05-09T07:02:48.971Z,25.01
2024-05-09T07:05:15.885Z,25.15
2024-05-09T07:07:42.412Z,25.28
2024-05-09T07:10:12.243Z,25.37
2024-05-09T07:12:51.757Z,25.46
2024-05-09T07:15:18.364Z,25.55
2024-05-09T07:17:48.239Z,25.67
2024-05-09T07:20:22.940Z,25.81
2024-05-09T07:22:54.315Z,25.96
2024-05-09T07:25:20.768Z,26.12
2024-05-09T07:27:47.157Z,26.27
2024-05-09T07:30:19.939Z,26.42
2024-05-09T07:32:49.736Z,26.55
2024-05-09T07:35:16.473Z,26.66
2024-05-09T07:37:42.932Z,26.80
2024-05-09T07:40:12.040Z,26.90
2024-05-09T07:42:49.123Z,27.02
2024-05-09T07:45:38.925Z,27.14
2024-05-09T07:53:36.011Z,27.62
2024-05-09T07:55:47.044Z,27.78
2024-05-09T07:58:13.568Z,27.94
2024-05-09T08:00:40.038Z,28.08
2024-05-09T08:03:06.567Z,28.24
2024-05-09T08:05:33.111Z,28.39
2024-05-09T08:07:59.660Z,28.52
2024-05-09T08:10:28.955Z,28.68
2024-05-09T08:12:55.857Z,28.80
2024-05-09T08:15:22.526Z,28.95
2024-05-09T08:17:49.043Z,29.07
2024-05-09T08:20:22.941Z,29.20
2024-05-09T08:22:56.972Z,29.33
2024-05-09T08:25:26.654Z,29.45
2024-05-09T08:27:53.602Z,29.56
2024-05-09T08:33:04.047Z,29.82
2024-05-09T08:35:30.606Z,29.91
2024-05-09T08:37:57.222Z,30.02
2024-05-09T08:40:30.886Z,30.12
2024-05-09T08:43:04.480Z,30.23
2024-05-09T08:45:31.202Z,30.23
2024-05-09T08:47:57.889Z,30.28
2024-05-09T08:50:32.167Z,30.24
2024-05-09T08:53:04.654Z,30.15
2024-05-09T08:55:33.649Z,29.90
2024-05-09T08:58:00.119Z,29.29
2024-05-09T09:00:35.530Z,28.55
2024-05-09T09:03:03.585Z,28.15
2024-05-09T09:05:30.185Z,27.93
2024-05-09T09:07:56.674Z,27.79
2024-05-09T09:10:29.715Z,27.67
2024-05-09T09:12:58.680Z,27.58
2024-05-09T09:15:25.112Z,27.52
2024-05-09T09:17:51.769Z,27.51
2024-05-09T09:20:25.940Z,27.49
2024-05-09T09:22:55.764Z,27.43
2024-05-09T09:25:29.953Z,27.38
2024-05-09T09:28:00.246Z,27.37
2024-05-09T09:30:34.975Z,27.36
2024-05-09T09:33:04.326Z,27.35
2024-05-09T09:35:30.806Z,27.32
2024-05-09T09:37:57.172Z,27.31
2024-05-09T09:40:31.028Z,27.29
2024-05-09T09:42:59.067Z,27.24
2024-05-09T09:45:25.513Z,27.14
2024-05-09T09:47:51.962Z,27.14
2024-05-09T09:50:24.077Z,27.14
2024-05-09T09:52:57.968Z,27.06
2024-05-09T09:55:24.468Z,26.95
2024-05-09T09:57:50.912Z,26.87
2024-05-09T10:00:23.658Z,26.87
2024-05-09T10:02:53.447Z,26.85
2024-05-09T10:05:19.991Z,26.79
2024-05-09T10:07:46.548Z,26.66
2024-05-09T10:10:16.270Z,26.65
2024-05-09T10:12:46.379Z,26.63
2024-05-09T10:15:13.121Z,26.54
2024-05-09T10:17:39.654Z,26.48
2024-05-09T10:20:14.407Z,26.42
2024-05-09T10:22:47.395Z,26.36
2024-05-09T10:25:13.886Z,26.30
2024-05-09T10:27:40.350Z,26.27
2024-05-09T10:30:11.607Z,26.27
2024-05-09T10:32:41.807Z,26.26
2024-05-09T10:35:08.335Z,26.24
2024-05-09T10:37:34.785Z,26.22
2024-05-09T10:40:01.318Z,26.17
2024-05-09T10:42:27.847Z,26.12
2024-05-09T10:44:54.248Z,26.08
2024-05-09T10:47:20.646Z,26.04
2024-05-09T10:49:47.253Z,25.97
2024-05-09T10:52:14.028Z,25.94
2024-05-09T10:54:40.549Z,25.88
2024-05-09T10:57:07.148Z,25.92
2024-05-09T10:59:33.563Z,25.95
2024-05-09T11:02:00.363Z,25.95
2024-05-09T11:04:27.157Z,25.98
2024-05-09T11:06:53.742Z,25.99
2024-05-09T11:09:20.251Z,26.01
2024-05-09T11:11:46.751Z,26.01
2024-05-09T11:14:13.151Z,26.02
2024-05-09T11:16:39.674Z,26.02
2024-05-09T11:19:06.186Z,25.99
2024-05-09T11:21:32.807Z,25.98
2024-05-09T11:23:59.265Z,25.91
2024-05-09T11:26:25.677Z,25.92
2024-05-09T11:28:52.083Z,25.91
2024-05-09T11:31:19.758Z,25.92
2024-05-09T11:33:46.584Z,25.91
2024-05-09T11:36:13.177Z,25.92
2024-05-09T11:38:39.573Z,25.92
2024-05-09T11:41:06.157Z,25.92
2024-05-09T11:43:32.704Z,25.87
2024-05-09T11:45:59.246Z,25.85
2024-05-09T11:48:26.192Z,25.89
2024-05-09T11:50:52.860Z,25.88
2024-05-09T11:53:19.363Z,25.88
2024-05-09T11:55:45.805Z,25.88
2024-05-09T11:58:12.364Z,25.88
2024-05-09T12:00:39.132Z,25.88
2024-05-09T12:03:06.098Z,25.89
2024-05-09T12:05:33.359Z,25.87
2024-05-09T12:08:00.479Z,25.85
2024-05-09T12:10:33.042Z,25.85
2024-05-09T12:13:02.014Z,25.84
2024-05-09T12:15:28.791Z,25.84
2024-05-09T12:17:58.182Z,25.83
2024-05-09T12:20:34.381Z,25.80
2024-05-09T12:23:03.738Z,25.78
2024-05-09T12:25:30.163Z,25.77
2024-05-09T12:27:56.553Z,25.77
2024-05-09T12:30:32.767Z,25.78
2024-05-09T12:33:04.085Z,25.77
2024-05-09T12:35:30.727Z,25.78
2024-05-09T12:37:57.116Z,25.77
2024-05-09T12:40:31.821Z,25.77
2024-05-09T12:43:02.899Z,25.78
2024-05-09T12:45:29.378Z,25.78
2024-05-09T12:47:55.904Z,25.76
2024-05-09T12:50:31.102Z,25.74
2024-05-09T12:52:59.431Z,25.73
2024-05-09T12:55:40.378Z,25.68
2024-05-09T12:58:17.878Z,25.58
2024-05-09T13:00:44.699Z,25.52
2024-05-09T13:03:11.457Z,25.48
2024-05-09T13:05:38.028Z,25.48
2024-05-09T13:08:09.799Z,25.50
2024-05-09T13:10:39.946Z,25.49
2024-05-09T13:13:06.477Z,25.48
2024-05-09T13:15:33.042Z,25.49
2024-05-09T13:18:02.628Z,25.48
2024-05-09T13:20:34.399Z,25.48
2024-05-09T13:23:02.401Z,25.48
2024-05-09T13:25:28.890Z,25.48
2024-05-09T13:27:55.347Z,25.47
2024-05-09T13:30:29.366Z,25.46
2024-05-09T13:33:04.384Z,25.47
2024-05-09T13:35:30.844Z,25.47
2024-05-09T13:37:57.244Z,25.48
2024-05-09T13:40:32.194Z,25.48
2024-05-09T13:43:01.175Z,25.46
2024-05-09T13:45:27.649Z,25.45
2024-05-09T13:47:54.218Z,25.44
2024-05-09T13:50:30.935Z,25.44
2024-05-09T13:53:01.285Z,25.44
2024-05-09T13:55:27.773Z,25.44
2024-05-09T13:57:54.358Z,25.44
2024-05-09T14:02:50.148Z,25.40
2024-05-09T14:05:16.892Z,25.40
2024-05-09T14:07:43.443Z,25.39
2024-05-09T14:10:19.514Z,25.38
2024-05-09T14:12:49.593Z,25.37
2024-05-09T14:15:16.048Z,25.35
2024-05-09T14:17:42.574Z,25.34
2024-05-09T14:20:13.964Z,25.28
2024-05-09T14:22:40.677Z,25.25
2024-05-09T14:25:07.148Z,25.22
2024-05-09T14:27:33.733Z,25.20
2024-05-09T14:30:00.184Z,25.18
2024-05-09T14:32:26.822Z,25.16
2024-05-09T14:34:53.385Z,25.15
2024-05-09T14:37:19.950Z,25.15
2024-05-09T14:39:46.481Z,25.14
2024-05-09T14:42:13.969Z,25.11
2024-05-09T14:47:08.609Z,25.08
2024-05-09T14:49:37.537Z,25.05
2024-05-09T14:52:04.643Z,25.03
2024-05-09T14:54:31.112Z,25.02
2024-05-09T14:56:58.234Z,25.01
2024-05-09T14:59:24.730Z,25.01
2024-05-09T15:01:51.241Z,24.97
2024-05-09T15:04:17.887Z,25.00
2024-05-09T15:06:44.341Z,25.00
2024-05-09T15:09:10.807Z,24.99
2024-05-09T15:11:37.346Z,24.98
2024-05-09T15:14:03.810Z,24.98
2024-05-09T15:16:30.376Z,24.96
2024-05-09T15:18:57.046Z,24.96
2024-05-09T15:21:24.203Z,24.98
2024-05-09T15:23:50.636Z,25.00
2024-05-09T15:26:17.131Z,25.03
2024-05-09T15:28:43.531Z,25.03
2024-05-09T15:31:09.965Z,25.05
2024-05-09T15:33:36.564Z,25.05
2024-05-09T15:36:03.020Z,25.07
2024-05-09T15:38:29.377Z,25.08
2024-05-09T15:40:56.090Z,25.09
2024-05-09T15:43:22.546Z,25.08
2024-05-09T15:45:49.068Z,25.09
2024-05-09T15:48:15.607Z,25.09
2024-05-09T15:50:44.573Z,25.09
2024-05-09T15:53:12.056Z,25.09
2024-05-09T15:55:39.198Z,25.10
2024-05-09T15:58:06.434Z,25.09
2024-05-09T16:00:38.312Z,25.08
2024-05-09T16:03:08.188Z,25.08
2024-05-09T16:05:34.898Z,25.08
2024-05-09T16:08:04.527Z,25.07
2024-05-09T16:10:33.237Z,25.06
2024-05-09T16:13:01.272Z,25.05
2024-05-09T16:15:27.932Z,25.05
2024-05-09T16:17:54.434Z,25.04
2024-05-09T16:20:33.764Z,25.03
2024-05-09T16:23:05.537Z,25.02
2024-05-09T16:25:31.950Z,25.00
2024-05-09T16:27:58.455Z,25.00
2024-05-09T16:30:31.758Z,24.98
2024-05-09T16:33:01.861Z,24.98
2024-05-09T16:35:28.446Z,24.96
2024-05-09T16:37:54.921Z,24.95
2024-05-09T16:43:07.290Z,24.92
2024-05-09T16:45:34.330Z,24.90
2024-05-09T16:48:01.254Z,24.89
2024-05-09T16:50:32.573Z,24.88
2024-05-09T16:53:01.077Z,24.86
2024-05-09T16:55:27.731Z,24.85
2024-05-09T16:57:54.465Z,24.83
2024-05-09T17:00:31.244Z,24.83
2024-05-09T17:03:06.413Z,24.82
2024-05-09T17:05:33.585Z,24.81
2024-05-09T17:08:00.251Z,24.79
2024-05-09T17:10:32.287Z,24.78
2024-05-09T17:13:00.914Z,24.77
2024-05-09T17:15:27.450Z,24.75
2024-05-09T17:17:53.936Z,24.73
2024-05-09T17:20:29.374Z,24.71
2024-05-09T17:23:00.248Z,24.70
2024-05-09T17:25:26.656Z,24.68
2024-05-09T17:27:53.109Z,24.65
2024-05-09T17:30:28.803Z,24.63
2024-05-09T17:33:01.127Z,24.61
2024-05-09T17:35:27.688Z,24.58
2024-05-09T17:37:54.099Z,24.55
2024-05-09T17:40:30.051Z,24.52
2024-05-09T17:42:59.906Z,24.50
2024-05-09T17:45:26.388Z,24.47
2024-05-09T17:47:53.022Z,24.45
2024-05-09T17:50:27.328Z,24.43
2024-05-09T17:53:00.083Z,24.41
2024-05-09T17:55:26.495Z,24.38
2024-05-09T17:57:56.106Z,24.36
2024-05-09T18:00:32.871Z,24.33
2024-05-09T18:03:05.049Z,24.30
2024-05-09T18:05:34.034Z,24.28
2024-05-09T18:08:00.589Z,24.26
2024-05-09T18:10:34.834Z,24.23
2024-05-09T18:13:04.248Z,24.21
2024-05-09T18:15:30.880Z,24.18
2024-05-09T18:17:57.443Z,24.15
2024-05-09T18:23:08.350Z,24.08
2024-05-09T18:25:34.900Z,24.05
2024-05-09T18:28:01.608Z,24.01
2024-05-09T18:30:33.747Z,23.97
2024-05-09T18:33:02.634Z,23.95
2024-05-09T18:35:29.304Z,23.92
2024-05-09T18:37:55.758Z,23.89
2024-05-09T18:40:31.209Z,23.85
2024-05-09T18:43:01.643Z,23.81
2024-05-09T18:45:29.184Z,23.79
2024-05-09T18:47:55.858Z,23.74
2024-05-09T18:50:31.846Z,23.71
2024-05-09T18:53:05.219Z,23.66
2024-05-09T18:55:31.621Z,23.63
2024-05-09T18:57:58.057Z,23.61
2024-05-09T19:00:33.303Z,23.45
2024-05-09T19:03:03.538Z,23.53
2024-05-09T19:05:30.477Z,23.50
2024-05-09T19:07:57.090Z,23.47
2024-05-09T19:10:26.408Z,23.43
2024-05-09T19:12:58.691Z,23.41
2024-05-09T19:15:25.250Z,23.37
2024-05-09T19:17:51.753Z,23.35
2024-05-09T19:20:25.263Z,23.33
2024-05-09T19:22:57.850Z,23.28
2024-05-09T19:25:24.372Z,23.27
2024-05-09T19:27:50.779Z,23.24
2024-05-09T19:30:25.400Z,23.22
2024-05-09T19:33:00.890Z,23.19
2024-05-09T19:35:27.399Z,23.16
2024-05-09T19:37:54.007Z,23.14
2024-05-09T19:40:28.609Z,23.11
2024-05-09T19:42:58.174Z,22.97
2024-05-09T19:45:24.642Z,23.07
2024-05-09T19:47:51.266Z,23.04
2024-05-09T19:50:26.426Z,23.02
2024-05-09T19:52:59.100Z,23.00
2024-05-09T19:55:25.486Z,22.98
2024-05-09T19:57:51.983Z,22.95
2024-05-09T20:00:25.947Z,22.94
2024-05-09T20:02:55.953Z,22.91
2024-05-09T20:05:23.034Z,22.89
2024-05-09T20:07:49.620Z,22.88
2024-05-09T20:10:23.366Z,22.85
2024-05-09T20:12:53.170Z,22.84
2024-05-09T20:15:19.687Z,22.81
2024-05-09T20:17:46.337Z,22.78
2024-05-09T20:20:23.468Z,22.76
2024-05-09T20:22:55.164Z,22.74
2024-05-09T20:25:21.656Z,22.71
2024-05-09T20:27:48.307Z,22.70
2024-05-09T20:30:21.044Z,22.68
2024-05-09T20:32:51.964Z,22.66
2024-05-09T20:35:18.414Z,22.63
2024-05-09T20:37:44.797Z,22.61
2024-05-09T20:40:18.198Z,22.60
2024-05-09T20:42:51.396Z,22.57
2024-05-09T20:45:17.850Z,22.54
2024-05-09T20:47:44.360Z,22.53
2024-05-09T20:50:20.259Z,22.51
2024-05-09T20:52:54.721Z,22.49
2024-05-09T20:55:21.227Z,22.48
2024-05-09T20:57:47.654Z,22.46
2024-05-09T21:00:18.723Z,22.44
2024-05-09T21:02:48.637Z,22.42
2024-05-09T21:05:15.293Z,22.40
2024-05-09T21:07:41.824Z,22.38
2024-05-09T21:10:15.471Z,22.36
2024-05-09T21:12:46.025Z,22.33
2024-05-09T21:15:12.495Z,22.31
2024-05-09T21:17:39.032Z,22.31
2024-05-09T21:20:11.409Z,22.29
2024-05-09T21:22:40.826Z,22.27
2024-05-09T21:25:07.257Z,22.25
2024-05-09T21:27:33.805Z,22.23
2024-05-09T21:30:00.774Z,22.22
2024-05-09T21:32:27.314Z,22.18
2024-05-09T21:34:53.771Z,22.17
2024-05-09T21:37:20.185Z,22.15
2024-05-09T21:39:46.734Z,22.13
2024-05-09T21:42:13.216Z,22.11
2024-05-09T21:44:39.821Z,22.07
2024-05-09T21:47:06.406Z,22.02
2024-05-09T21:49:32.966Z,21.98
2024-05-09T21:51:59.923Z,21.93
2024-05-09T21:54:26.314Z,21.88
2024-05-09T21:56:52.799Z,21.82
2024-05-09T21:59:19.217Z,21.78
2024-05-09T22:01:45.728Z,21.74
2024-05-09T22:04:12.280Z,21.70
2024-05-09T22:06:38.817Z,21.66
2024-05-09T22:09:05.238Z,21.62
2024-05-09T22:11:31.675Z,21.57
2024-05-09T22:13:58.111Z,21.54
2024-05-09T22:16:24.648Z,21.49
2024-05-09T22:18:51.323Z,21.45
2024-05-09T22:21:17.806Z,21.41
2024-05-09T22:23:44.253Z,21.37
2024-05-09T22:26:10.611Z,21.33
2024-05-09T22:28:37.028Z,21.28
2024-05-09T22:31:03.491Z,21.23
2024-05-09T22:33:30.082Z,21.20
2024-05-09T22:35:56.524Z,21.15
2024-05-09T22:38:22.963Z,21.12
2024-05-09T22:40:50.149Z,21.08
2024-05-09T22:43:17.023Z,21.05
2024-05-09T22:45:43.757Z,21.00
2024-05-09T22:48:10.554Z,20.96
2024-05-09T22:50:37.131Z,20.94
2024-05-09T22:53:03.593Z,20.91
2024-05-09T22:55:30.370Z,20.87
2024-05-09T22:57:56.916Z,20.84
2024-05-09T23:00:31.261Z,20.81
2024-05-09T23:02:59.408Z,20.77
2024-05-09T23:05:25.960Z,20.74
2024-05-09T23:07:52.415Z,20.70
2024-05-09T23:10:27.317Z,20.65
2024-05-09T23:12:58.686Z,20.64
2024-05-09T23:15:25.153Z,20.62
2024-05-09T23:17:51.767Z,20.58
2024-05-09T23:20:29.616Z,20.55
2024-05-09T23:23:03.071Z,20.52
2024-05-09T23:25:29.466Z,20.47
2024-05-09T23:27:55.917Z,20.45
2024-05-09T23:30:32.998Z,20.41
2024-05-09T23:33:04.181Z,20.38
2024-05-09T23:35:30.644Z,20.38
2024-05-09T23:37:57.010Z,20.35
2024-05-09T23:40:26.719Z,20.33
2024-05-09T23:43:00.745Z,20.30
2024-05-09T23:45:27.163Z,20.27
2024-05-09T23:47:53.706Z,20.25
2024-05-09T23:50:30.267Z,20.24
2024-05-09T23:53:00.442Z,20.23
2024-05-09T23:55:27.002Z,20.22
2024-05-09T23:57:53.479Z,20.20
